sensor_id;sensor_type;location;lat;lon;timestamp;pressure;altitude;pressure_sealevel;temperature;humidity
39455;BME280;25155;41.890;23.446;2023-04-27T00:01:58;91381.25;;;2.76;72.19
39455;BME280;25155;41.890;23.446;2023-04-27T00:04:25;91372.97;;;2.73;72.09
39455;BME280;25155;41.890;23.446;2023-04-27T00:06:52;91377.81;;;2.65;72.08
39455;BME280;25155;41.890;23.446;2023-04-27T00:09:20;91367.91;;;2.57;72.05
39455;BME280;25155;41.890;23.446;2023-04-27T00:11:47;91375.94;;;2.55;71.97
39455;BME280;25155;41.890;23.446;2023-04-27T00:14:15;91370.75;;;2.55;72.20
39455;BME280;25155;41.890;23.446;2023-04-27T00:16:42;91376.97;;;2.59;72.13
39455;BME280;25155;41.890;23.446;2023-04-27T00:19:09;91379.63;;;2.64;72.24
39455;BME280;25155;41.890;23.446;2023-04-27T00:21:38;91376.22;;;2.59;71.96
39455;BME280;25155;41.890;23.446;2023-04-27T00:24:06;91366.63;;;2.59;72.50
39455;BME280;25155;41.890;23.446;2023-04-27T00:26:34;91366.06;;;2.52;72.33
39455;BME280;25155;41.890;23.446;2023-04-27T00:29:01;91368.66;;;2.52;72.09
39455;BME280;25155;41.890;23.446;2023-04-27T00:31:28;91360.13;;;2.51;72.46
39455;BME280;25155;41.890;23.446;2023-04-27T00:33:55;91361.66;;;2.52;72.56
39455;BME280;25155;41.890;23.446;2023-04-27T00:36:22;91362.94;;;2.50;72.76
39455;BME280;25155;41.890;23.446;2023-04-27T00:38:50;91373.81;;;2.52;72.90
39455;BME280;25155;41.890;23.446;2023-04-27T00:41:17;91377.50;;;2.56;72.67
39455;BME280;25155;41.890;23.446;2023-04-27T00:43:45;91378.28;;;2.57;72.31
39455;BME280;25155;41.890;23.446;2023-04-27T00:46:12;91375.44;;;2.58;72.32
39455;BME280;25155;41.890;23.446;2023-04-27T00:48:40;91377.44;;;2.51;71.96
39455;BME280;25155;41.890;23.446;2023-04-27T00:51:07;91382.03;;;2.44;71.57
39455;BME280;25155;41.890;23.446;2023-04-27T00:53:35;91385.81;;;2.36;71.27
39455;BME280;25155;41.890;23.446;2023-04-27T00:56:04;91388.16;;;2.38;71.03
39455;BME280;25155;41.890;23.446;2023-04-27T00:58:31;91392.53;;;2.32;70.76
39455;BME280;25155;41.890;23.446;2023-04-27T01:01:00;91397.88;;;2.25;71.38
39455;BME280;25155;41.890;23.446;2023-04-27T01:03:29;91394.44;;;2.20;71.16
39455;BME280;25155;41.890;23.446;2023-04-27T01:05:56;91390.56;;;2.17;71.80
39455;BME280;25155;41.890;23.446;2023-04-27T01:08:27;91397.53;;;2.16;71.62
39455;BME280;25155;41.890;23.446;2023-04-27T01:10:54;91404.03;;;2.19;71.66
39455;BME280;25155;41.890;23.446;2023-04-27T01:13:21;91401.19;;;2.21;72.17
39455;BME280;25155;41.890;23.446;2023-04-27T01:15:48;91402.53;;;2.23;72.06
39455;BME280;25155;41.890;23.446;2023-04-27T01:18:17;91409.00;;;2.26;71.94
39455;BME280;25155;41.890;23.446;2023-04-27T01:20:44;91406.16;;;2.27;71.68
39455;BME280;25155;41.890;23.446;2023-04-27T01:23:14;91402.53;;;2.23;72.22
39455;BME280;25155;41.890;23.446;2023-04-27T01:25:41;91407.69;;;2.23;72.18
39455;BME280;25155;41.890;23.446;2023-04-27T01:28:08;91410.75;;;2.20;72.57
39455;BME280;25155;41.890;23.446;2023-04-27T01:30:35;91412.00;;;2.17;72.11
39455;BME280;25155;41.890;23.446;2023-04-27T01:33:02;91414.84;;;2.16;72.20
39455;BME280;25155;41.890;23.446;2023-04-27T01:35:30;91415.88;;;2.15;72.19
39455;BME280;25155;41.890;23.446;2023-04-27T01:37:57;91417.19;;;2.17;72.25
39455;BME280;25155;41.890;23.446;2023-04-27T01:40:26;91415.41;;;2.18;72.19
39455;BME280;25155;41.890;23.446;2023-04-27T01:42:53;91414.34;;;2.19;72.67
39455;BME280;25155;41.890;23.446;2023-04-27T01:45:21;91418.28;;;2.22;72.12
39455;BME280;25155;41.890;23.446;2023-04-27T01:47:49;91413.28;;;2.15;72.17
39455;BME280;25155;41.890;23.446;2023-04-27T01:50:17;91415.63;;;2.16;72.28
39455;BME280;25155;41.890;23.446;2023-04-27T01:52:44;91406.56;;;2.14;72.05
39455;BME280;25155;41.890;23.446;2023-04-27T01:55:12;91411.44;;;2.10;72.28
39455;BME280;25155;41.890;23.446;2023-04-27T01:57:40;91408.56;;;2.07;72.08
39455;BME280;25155;41.890;23.446;2023-04-27T02:00:08;91405.97;;;2.07;72.50
39455;BME280;25155;41.890;23.446;2023-04-27T02:02:35;91403.38;;;2.07;72.33
39455;BME280;25155;41.890;23.446;2023-04-27T02:05:02;91406.97;;;2.06;72.34
39455;BME280;25155;41.890;23.446;2023-04-27T02:07:30;91407.50;;;2.08;72.96
39455;BME280;25155;41.890;23.446;2023-04-27T02:09:57;91407.03;;;2.11;72.72
39455;BME280;25155;41.890;23.446;2023-04-27T02:12:24;91408.13;;;2.15;72.62
39455;BME280;25155;41.890;23.446;2023-04-27T02:14:52;91409.84;;;2.09;72.18
39455;BME280;25155;41.890;23.446;2023-04-27T02:17:19;91407.28;;;2.09;72.67
39455;BME280;25155;41.890;23.446;2023-04-27T02:19:46;91404.44;;;2.11;72.59
39455;BME280;25155;41.890;23.446;2023-04-27T02:22:13;91410.66;;;2.10;72.31
39455;BME280;25155;41.890;23.446;2023-04-27T02:24:40;91412.19;;;2.11;72.19
39455;BME280;25155;41.890;23.446;2023-04-27T02:27:07;91417.91;;;2.13;72.45
39455;BME280;25155;41.890;23.446;2023-04-27T02:29:34;91415.25;;;2.08;72.69
39455;BME280;25155;41.890;23.446;2023-04-27T02:32:05;91419.31;;;1.98;72.26
39455;BME280;25155;41.890;23.446;2023-04-27T02:34:32;91415.09;;;1.92;72.05
39455;BME280;25155;41.890;23.446;2023-04-27T02:36:59;91419.44;;;1.87;72.20
39455;BME280;25155;41.890;23.446;2023-04-27T02:39:26;91424.28;;;1.83;72.25
39455;BME280;25155;41.890;23.446;2023-04-27T02:41:53;91433.53;;;1.79;72.70
39455;BME280;25155;41.890;23.446;2023-04-27T02:44:20;91429.16;;;1.79;72.68
39455;BME280;25155;41.890;23.446;2023-04-27T02:46:48;91434.31;;;1.79;72.67
39455;BME280;25155;41.890;23.446;2023-04-27T02:49:17;91438.47;;;1.80;72.80
39455;BME280;25155;41.890;23.446;2023-04-27T02:51:44;91437.19;;;1.83;72.99
39455;BME280;25155;41.890;23.446;2023-04-27T02:54:11;91439.88;;;1.88;72.70
39455;BME280;25155;41.890;23.446;2023-04-27T02:56:38;91441.94;;;1.91;72.83
39455;BME280;25155;41.890;23.446;2023-04-27T02:59:05;91438.88;;;1.94;73.56
39455;BME280;25155;41.890;23.446;2023-04-27T03:01:32;91445.34;;;1.92;73.58
39455;BME280;25155;41.890;23.446;2023-04-27T03:03:59;91448.44;;;1.94;73.68
39455;BME280;25155;41.890;23.446;2023-04-27T03:06:29;91450.81;;;1.95;73.30
39455;BME280;25155;41.890;23.446;2023-04-27T03:08:56;91451.09;;;1.99;73.83
39455;BME280;25155;41.890;23.446;2023-04-27T03:11:24;91452.44;;;2.02;73.81
39455;BME280;25155;41.890;23.446;2023-04-27T03:13:51;91451.09;;;1.99;73.64
39455;BME280;25155;41.890;23.446;2023-04-27T03:16:18;91460.47;;;2.05;73.73
39455;BME280;25155;41.890;23.446;2023-04-27T03:18:45;91463.13;;;2.10;73.44
39455;BME280;25155;41.890;23.446;2023-04-27T03:21:13;91462.91;;;2.12;73.36
39455;BME280;25155;41.890;23.446;2023-04-27T03:23:42;91465.19;;;2.08;73.54
39455;BME280;25155;41.890;23.446;2023-04-27T03:26:11;91460.78;;;2.09;73.59
39455;BME280;25155;41.890;23.446;2023-04-27T03:28:39;91456.63;;;2.08;73.60
39455;BME280;25155;41.890;23.446;2023-04-27T03:31:07;91468.59;;;2.14;73.55
39455;BME280;25155;41.890;23.446;2023-04-27T03:33:35;91468.13;;;2.17;73.71
39455;BME280;25155;41.890;23.446;2023-04-27T03:36:03;91459.34;;;2.18;73.65
39455;BME280;25155;41.890;23.446;2023-04-27T03:38:31;91466.06;;;2.19;73.33
39455;BME280;25155;41.890;23.446;2023-04-27T03:41:00;91476.59;;;2.12;72.99
39455;BME280;25155;41.890;23.446;2023-04-27T03:43:27;91477.88;;;2.10;73.54
39455;BME280;25155;41.890;23.446;2023-04-27T03:45:54;91484.28;;;2.07;73.52
39455;BME280;25155;41.890;23.446;2023-04-27T03:48:22;91484.75;;;2.04;73.26
39455;BME280;25155;41.890;23.446;2023-04-27T03:50:49;91493.56;;;2.03;73.55
39455;BME280;25155;41.890;23.446;2023-04-27T03:53:16;91492.22;;;2.01;73.81
39455;BME280;25155;41.890;23.446;2023-04-27T03:55:43;91490.41;;;2.01;73.33
39455;BME280;25155;41.890;23.446;2023-04-27T03:58:12;91489.63;;;2.01;73.35
39455;BME280;25155;41.890;23.446;2023-04-27T04:00:39;91495.88;;;2.05;73.52
39455;BME280;25155;41.890;23.446;2023-04-27T04:03:06;91502.63;;;2.06;73.91
39455;BME280;25155;41.890;23.446;2023-04-27T04:05:33;91505.81;;;2.13;73.82
39455;BME280;25155;41.890;23.446;2023-04-27T04:08:01;91507.91;;;2.16;73.81
39455;BME280;25155;41.890;23.446;2023-04-27T04:10:28;91508.22;;;2.20;73.56
39455;BME280;25155;41.890;23.446;2023-04-27T04:12:55;91510.56;;;2.21;73.52
39455;BME280;25155;41.890;23.446;2023-04-27T04:15:23;91507.97;;;2.21;73.97
39455;BME280;25155;41.890;23.446;2023-04-27T04:17:50;91506.00;;;2.28;73.56
39455;BME280;25155;41.890;23.446;2023-04-27T04:20:17;91509.66;;;2.32;73.48
39455;BME280;25155;41.890;23.446;2023-04-27T04:22:45;91516.94;;;2.35;73.68
39455;BME280;25155;41.890;23.446;2023-04-27T04:25:12;91515.94;;;2.36;73.47
39455;BME280;25155;41.890;23.446;2023-04-27T04:27:39;91519.06;;;2.39;73.13
39455;BME280;25155;41.890;23.446;2023-04-27T04:30:07;91527.09;;;2.42;73.43
39455;BME280;25155;41.890;23.446;2023-04-27T04:32:35;91518.34;;;2.43;73.19
39455;BME280;25155;41.890;23.446;2023-04-27T04:35:04;91521.47;;;2.45;73.61
39455;BME280;25155;41.890;23.446;2023-04-27T04:37:32;91514.72;;;2.44;73.24
39455;BME280;25155;41.890;23.446;2023-04-27T04:40:03;91523.81;;;2.47;73.49
39455;BME280;25155;41.890;23.446;2023-04-27T04:42:33;91521.50;;;2.50;73.36
39455;BME280;25155;41.890;23.446;2023-04-27T04:45:01;91514.53;;;2.51;73.28
39455;BME280;25155;41.890;23.446;2023-04-27T04:47:29;91528.38;;;2.62;73.35
39455;BME280;25155;41.890;23.446;2023-04-27T04:50:00;91527.09;;;2.64;73.35
39455;BME280;25155;41.890;23.446;2023-04-27T04:52:27;91541.41;;;2.72;73.80
39455;BME280;25155;41.890;23.446;2023-04-27T04:54:54;91541.47;;;2.77;73.74
39455;BME280;25155;41.890;23.446;2023-04-27T04:57:21;91536.34;;;2.82;73.64
39455;BME280;25155;41.890;23.446;2023-04-27T04:59:48;91545.19;;;2.86;73.55
39455;BME280;25155;41.890;23.446;2023-04-27T05:02:15;91541.88;;;2.91;73.45
39455;BME280;25155;41.890;23.446;2023-04-27T05:04:42;91541.38;;;2.94;72.98
39455;BME280;25155;41.890;23.446;2023-04-27T05:07:11;91547.59;;;2.93;73.21
39455;BME280;25155;41.890;23.446;2023-04-27T05:09:38;91526.31;;;2.86;73.07
39455;BME280;25155;41.890;23.446;2023-04-27T05:12:06;91547.53;;;2.88;73.39
39455;BME280;25155;41.890;23.446;2023-04-27T05:14:33;91550.13;;;2.88;73.35
39455;BME280;25155;41.890;23.446;2023-04-27T05:17:01;91540.50;;;2.83;72.85
39455;BME280;25155;41.890;23.446;2023-04-27T05:19:28;91550.91;;;2.88;72.83
39455;BME280;25155;41.890;23.446;2023-04-27T05:21:56;91550.44;;;2.91;72.87
39455;BME280;25155;41.890;23.446;2023-04-27T05:24:25;91554.31;;;2.94;72.55
39455;BME280;25155;41.890;23.446;2023-04-27T05:26:52;91553.63;;;2.99;72.56
39455;BME280;25155;41.890;23.446;2023-04-27T05:29:20;91553.66;;;3.04;72.91
39455;BME280;25155;41.890;23.446;2023-04-27T05:31:47;91552.72;;;3.10;72.96
39455;BME280;25155;41.890;23.446;2023-04-27T05:34:14;91554.09;;;3.18;72.49
39455;BME280;25155;41.890;23.446;2023-04-27T05:36:41;91551.28;;;3.24;72.51
39455;BME280;25155;41.890;23.446;2023-04-27T05:39:09;91548.50;;;3.31;72.54
39455;BME280;25155;41.890;23.446;2023-04-27T05:41:37;91549.56;;;3.35;72.45
39455;BME280;25155;41.890;23.446;2023-04-27T05:44:05;91547.31;;;3.44;73.07
39455;BME280;25155;41.890;23.446;2023-04-27T05:46:32;91549.72;;;3.51;72.81
39455;BME280;25155;41.890;23.446;2023-04-27T05:48:59;91553.41;;;3.60;72.95
39455;BME280;25155;41.890;23.446;2023-04-27T05:51:26;91550.84;;;3.65;73.15
39455;BME280;25155;41.890;23.446;2023-04-27T05:53:53;91559.22;;;3.72;73.17
39455;BME280;25155;41.890;23.446;2023-04-27T05:56:21;91554.56;;;3.74;73.54
39455;BME280;25155;41.890;23.446;2023-04-27T05:58:49;91562.38;;;3.79;73.43
39455;BME280;25155;41.890;23.446;2023-04-27T06:01:16;91567.59;;;3.84;73.98
39455;BME280;25155;41.890;23.446;2023-04-27T06:03:44;91568.41;;;3.90;73.57
39455;BME280;25155;41.890;23.446;2023-04-27T06:06:11;91566.09;;;3.94;73.77
39455;BME280;25155;41.890;23.446;2023-04-27T06:08:39;91572.34;;;3.98;73.14
39455;BME280;25155;41.890;23.446;2023-04-27T06:11:06;91571.09;;;4.06;73.74
39455;BME280;25155;41.890;23.446;2023-04-27T06:13:33;91575.06;;;4.13;73.16
39455;BME280;25155;41.890;23.446;2023-04-27T06:16:02;91570.38;;;4.15;72.87
39455;BME280;25155;41.890;23.446;2023-04-27T06:18:29;91571.47;;;4.25;72.71
39455;BME280;25155;41.890;23.446;2023-04-27T06:20:59;91567.06;;;4.25;73.29
39455;BME280;25155;41.890;23.446;2023-04-27T06:23:27;91571.53;;;4.35;73.28
39455;BME280;25155;41.890;23.446;2023-04-27T06:25:54;91565.56;;;4.39;73.60
39455;BME280;25155;41.890;23.446;2023-04-27T06:28:21;91567.47;;;4.54;73.29
39455;BME280;25155;41.890;23.446;2023-04-27T06:30:48;91561.78;;;4.63;72.53
39455;BME280;25155;41.890;23.446;2023-04-27T06:33:16;91567.56;;;4.70;72.56
39455;BME280;25155;41.890;23.446;2023-04-27T06:35:44;91557.72;;;4.77;72.48
39455;BME280;25155;41.890;23.446;2023-04-27T06:38:11;91554.13;;;4.88;72.43
39455;BME280;25155;41.890;23.446;2023-04-27T06:40:38;91557.25;;;4.95;72.02
39455;BME280;25155;41.890;23.446;2023-04-27T06:43:06;91563.25;;;5.01;69.01
39455;BME280;25155;41.890;23.446;2023-04-27T06:45:33;91558.84;;;5.02;67.28
39455;BME280;25155;41.890;23.446;2023-04-27T06:48:00;91559.63;;;5.12;68.98
39455;BME280;25155;41.890;23.446;2023-04-27T06:50:29;91558.88;;;5.22;69.56
39455;BME280;25155;41.890;23.446;2023-04-27T06:52:56;91555.75;;;5.30;67.28
39455;BME280;25155;41.890;23.446;2023-04-27T06:55:23;91559.41;;;5.29;67.07
39455;BME280;25155;41.890;23.446;2023-04-27T06:57:50;91554.22;;;5.40;67.76
39455;BME280;25155;41.890;23.446;2023-04-27T07:00:18;91562.88;;;5.56;69.43
39455;BME280;25155;41.890;23.446;2023-04-27T07:02:45;91559.22;;;5.72;69.89
39455;BME280;25155;41.890;23.446;2023-04-27T07:05:12;91556.88;;;5.86;70.10
39455;BME280;25155;41.890;23.446;2023-04-27T07:07:41;91546.22;;;5.98;70.77
39455;BME280;25155;41.890;23.446;2023-04-27T07:10:09;91544.91;;;6.11;70.89
39455;BME280;25155;41.890;23.446;2023-04-27T07:12:36;91551.66;;;6.17;68.44
39455;BME280;25155;41.890;23.446;2023-04-27T07:15:04;91548.50;;;6.25;67.21
39455;BME280;25155;41.890;23.446;2023-04-27T07:17:31;91544.31;;;6.39;68.53
39455;BME280;25155;41.890;23.446;2023-04-27T07:20:00;91545.31;;;6.54;68.80
39455;BME280;25155;41.890;23.446;2023-04-27T07:22:28;91558.28;;;6.69;67.77
39455;BME280;25155;41.890;23.446;2023-04-27T07:24:57;91551.50;;;6.78;66.42
39455;BME280;25155;41.890;23.446;2023-04-27T07:27:24;91549.88;;;6.88;67.34
39455;BME280;25155;41.890;23.446;2023-04-27T07:29:51;91539.94;;;7.00;67.73
39455;BME280;25155;41.890;23.446;2023-04-27T07:32:19;91542.94;;;7.18;67.06
39455;BME280;25155;41.890;23.446;2023-04-27T07:34:47;91545.53;;;7.33;65.72
39455;BME280;25155;41.890;23.446;2023-04-27T07:37:15;91546.28;;;7.33;61.20
39455;BME280;25155;41.890;23.446;2023-04-27T07:39:43;91535.09;;;7.33;58.69
39455;BME280;25155;41.890;23.446;2023-04-27T07:42:12;91551.19;;;7.40;61.38
39455;BME280;25155;41.890;23.446;2023-04-27T07:44:39;91544.97;;;7.36;54.43
39455;BME280;25155;41.890;23.446;2023-04-27T07:47:07;91537.53;;;7.09;53.44
39455;BME280;25155;41.890;23.446;2023-04-27T07:49:35;91544.63;;;6.93;52.80
39455;BME280;25155;41.890;23.446;2023-04-27T07:52:03;91545.91;;;7.01;55.29
39455;BME280;25155;41.890;23.446;2023-04-27T07:54:30;91543.56;;;6.99;52.68
39455;BME280;25155;41.890;23.446;2023-04-27T07:56:57;91546.97;;;7.00;53.88
39455;BME280;25155;41.890;23.446;2023-04-27T07:59:27;91556.34;;;7.01;52.61
39455;BME280;25155;41.890;23.446;2023-04-27T08:01:55;91553.44;;;7.07;52.41
39455;BME280;25155;41.890;23.446;2023-04-27T08:04:22;91552.34;;;7.19;51.98
39455;BME280;25155;41.890;23.446;2023-04-27T08:06:49;91548.16;;;7.18;53.01
39455;BME280;25155;41.890;23.446;2023-04-27T08:09:16;91552.84;;;7.21;52.96
39455;BME280;25155;41.890;23.446;2023-04-27T08:11:43;91559.16;;;7.09;50.60
39455;BME280;25155;41.890;23.446;2023-04-27T08:14:11;91558.63;;;7.12;50.88
39455;BME280;25155;41.890;23.446;2023-04-27T08:16:41;91555.94;;;7.28;51.85
39455;BME280;25155;41.890;23.446;2023-04-27T08:19:09;91558.28;;;7.34;50.46
39455;BME280;25155;41.890;23.446;2023-04-27T08:21:36;91562.66;;;7.44;50.30
39455;BME280;25155;41.890;23.446;2023-04-27T08:24:05;91541.00;;;7.44;51.90
39455;BME280;25155;41.890;23.446;2023-04-27T08:26:32;91555.31;;;7.51;50.66
39455;BME280;25155;41.890;23.446;2023-04-27T08:29:00;91552.41;;;7.58;50.80
39455;BME280;25155;41.890;23.446;2023-04-27T08:31:27;91554.97;;;7.63;49.34
39455;BME280;25155;41.890;23.446;2023-04-27T08:33:56;91553.41;;;7.62;51.04
39455;BME280;25155;41.890;23.446;2023-04-27T08:36:24;91542.16;;;7.67;51.64
39455;BME280;25155;41.890;23.446;2023-04-27T08:38:53;91553.03;;;7.79;51.03
39455;BME280;25155;41.890;23.446;2023-04-27T08:41:21;91549.84;;;7.87;52.00
39455;BME280;25155;41.890;23.446;2023-04-27T08:43:51;91543.00;;;7.92;50.42
39455;BME280;25155;41.890;23.446;2023-04-27T08:46:18;91543.59;;;7.83;49.87
39455;BME280;25155;41.890;23.446;2023-04-27T08:48:48;91546.66;;;7.96;49.69
39455;BME280;25155;41.890;23.446;2023-04-27T08:51:17;91543.06;;;7.86;48.16
39455;BME280;25155;41.890;23.446;2023-04-27T08:53:48;91548.50;;;7.90;50.79
39455;BME280;25155;41.890;23.446;2023-04-27T08:56:16;91549.66;;;8.08;50.87
39455;BME280;25155;41.890;23.446;2023-04-27T08:58:43;91545.47;;;8.12;49.75
39455;BME280;25155;41.890;23.446;2023-04-27T09:01:11;91549.00;;;8.21;49.71
39455;BME280;25155;41.890;23.446;2023-04-27T09:03:38;91539.66;;;8.15;49.62
39455;BME280;25155;41.890;23.446;2023-04-27T09:06:06;91549.06;;;8.16;48.84
39455;BME280;25155;41.890;23.446;2023-04-27T09:08:45;91543.34;;;8.14;47.22
39455;BME280;25155;41.890;23.446;2023-04-27T09:11:14;91541.13;;;8.26;51.03
39455;BME280;25155;41.890;23.446;2023-04-27T09:13:42;91534.16;;;8.46;50.79
39455;BME280;25155;41.890;23.446;2023-04-27T09:16:11;91537.81;;;8.45;47.47
39455;BME280;25155;41.890;23.446;2023-04-27T09:18:41;91540.09;;;8.52;49.19
39455;BME280;25155;41.890;23.446;2023-04-27T09:21:09;91543.84;;;8.45;47.85
39455;BME280;25155;41.890;23.446;2023-04-27T09:23:38;91535.03;;;8.36;48.88
39455;BME280;25155;41.890;23.446;2023-04-27T09:26:07;91539.38;;;8.46;50.48
39455;BME280;25155;41.890;23.446;2023-04-27T09:28:37;91547.81;;;8.38;47.52
39455;BME280;25155;41.890;23.446;2023-04-27T09:31:05;91526.38;;;8.41;48.16
39455;BME280;25155;41.890;23.446;2023-04-27T09:33:34;91536.72;;;8.51;48.67
39455;BME280;25155;41.890;23.446;2023-04-27T09:36:03;91526.22;;;8.56;48.09
39455;BME280;25155;41.890;23.446;2023-04-27T09:38:31;91528.00;;;8.61;48.57
39455;BME280;25155;41.890;23.446;2023-04-27T09:40:59;91524.56;;;8.66;49.05
39455;BME280;25155;41.890;23.446;2023-04-27T09:43:27;91532.31;;;8.71;48.41
39455;BME280;25155;41.890;23.446;2023-04-27T09:45:56;91507.91;;;8.80;49.64
39455;BME280;25155;41.890;23.446;2023-04-27T09:48:24;91516.94;;;8.93;47.73
39455;BME280;25155;41.890;23.446;2023-04-27T09:50:52;91527.75;;;9.06;47.44
39455;BME280;25155;41.890;23.446;2023-04-27T09:53:21;91524.72;;;9.17;47.13
39455;BME280;25155;41.890;23.446;2023-04-27T09:56:01;91510.31;;;9.20;47.11
39455;BME280;25155;41.890;23.446;2023-04-27T10:01:33;91509.97;;;9.27;46.64
39455;BME280;25155;41.890;23.446;2023-04-27T10:04:14;91523.47;;;9.15;45.93
39455;BME280;25155;41.890;23.446;2023-04-27T10:06:59;91499.78;;;9.06;45.14
39455;BME280;25155;41.890;23.446;2023-04-27T10:09:28;91498.94;;;9.11;45.85
39455;BME280;25155;41.890;23.446;2023-04-27T10:12:14;91502.31;;;9.11;44.10
39455;BME280;25155;41.890;23.446;2023-04-27T10:14:49;91514.34;;;8.88;44.72
39455;BME280;25155;41.890;23.446;2023-04-27T10:17:17;91507.91;;;9.05;47.32
39455;BME280;25155;41.890;23.446;2023-04-27T10:19:55;91514.91;;;9.09;44.89
39455;BME280;25155;41.890;23.446;2023-04-27T10:22:41;91501.19;;;8.98;45.19
39455;BME280;25155;41.890;23.446;2023-04-27T10:25:19;91499.34;;;8.75;45.32
39455;BME280;25155;41.890;23.446;2023-04-27T10:27:52;91504.63;;;8.70;46.58
39455;BME280;25155;41.890;23.446;2023-04-27T10:30:23;91506.75;;;8.68;46.16
39455;BME280;25155;41.890;23.446;2023-04-27T10:32:52;91504.53;;;8.56;45.05
39455;BME280;25155;41.890;23.446;2023-04-27T10:35:20;91497.03;;;8.49;45.12
39455;BME280;25155;41.890;23.446;2023-04-27T10:37:48;91507.69;;;8.29;46.69
39455;BME280;25155;41.890;23.446;2023-04-27T10:40:16;91499.31;;;8.32;45.56
39455;BME280;25155;41.890;23.446;2023-04-27T10:42:44;91482.50;;;8.19;45.58
39455;BME280;25155;41.890;23.446;2023-04-27T10:45:14;91506.16;;;8.27;45.26
39455;BME280;25155;41.890;23.446;2023-04-27T10:47:57;91506.69;;;8.24;45.25
39455;BME280;25155;41.890;23.446;2023-04-27T10:50:26;91498.09;;;8.24;46.94
39455;BME280;25155;41.890;23.446;2023-04-27T10:52:53;91500.66;;;8.29;46.10
39455;BME280;25155;41.890;23.446;2023-04-27T10:55:21;91504.81;;;8.30;46.05
39455;BME280;25155;41.890;23.446;2023-04-27T10:57:50;91499.50;;;8.40;45.45
39455;BME280;25155;41.890;23.446;2023-04-27T11:00:25;91485.44;;;8.36;45.03
39455;BME280;25155;41.890;23.446;2023-04-27T11:02:55;91509.56;;;8.52;45.18
39455;BME280;25155;41.890;23.446;2023-04-27T11:05:24;91499.53;;;8.59;45.56
39455;BME280;25155;41.890;23.446;2023-04-27T11:08:02;91498.16;;;8.43;45.42
39455;BME280;25155;41.890;23.446;2023-04-27T11:10:30;91508.88;;;8.66;45.19
39455;BME280;25155;41.890;23.446;2023-04-27T11:12:57;91507.47;;;8.73;45.06
39455;BME280;25155;41.890;23.446;2023-04-27T11:15:24;91494.56;;;8.82;45.57
39455;BME280;25155;41.890;23.446;2023-04-27T11:17:51;91507.31;;;8.89;45.08
39455;BME280;25155;41.890;23.446;2023-04-27T11:20:24;91510.16;;;8.92;44.26
39455;BME280;25155;41.890;23.446;2023-04-27T11:22:51;91500.69;;;8.96;44.01
39455;BME280;25155;41.890;23.446;2023-04-27T11:25:26;91513.72;;;9.02;43.52
39455;BME280;25155;41.890;23.446;2023-04-27T11:27:53;91507.13;;;9.04;43.50
39455;BME280;25155;41.890;23.446;2023-04-27T11:30:21;91507.84;;;9.10;43.68
39455;BME280;25155;41.890;23.446;2023-04-27T11:32:49;91512.56;;;9.08;43.22
39455;BME280;25155;41.890;23.446;2023-04-27T11:35:18;91520.19;;;9.04;42.49
39455;BME280;25155;41.890;23.446;2023-04-27T11:37:55;91517.25;;;8.87;42.43
39455;BME280;25155;41.890;23.446;2023-04-27T11:40:24;91514.25;;;8.74;42.73
39455;BME280;25155;41.890;23.446;2023-04-27T11:42:56;91509.66;;;8.66;42.97
39455;BME280;25155;41.890;23.446;2023-04-27T11:45:25;91512.09;;;8.57;42.61
39455;BME280;25155;41.890;23.446;2023-04-27T11:47:53;91513.22;;;8.51;43.33
39455;BME280;25155;41.890;23.446;2023-04-27T11:50:23;91509.63;;;8.47;41.46
39455;BME280;25155;41.890;23.446;2023-04-27T11:52:53;91511.94;;;8.49;43.24
39455;BME280;25155;41.890;23.446;2023-04-27T11:55:20;91522.41;;;8.49;43.44
39455;BME280;25155;41.890;23.446;2023-04-27T11:57:56;91511.94;;;8.49;42.61
39455;BME280;25155;41.890;23.446;2023-04-27T12:00:23;91516.91;;;8.45;41.76
39455;BME280;25155;41.890;23.446;2023-04-27T12:02:50;91513.97;;;8.52;41.62
39455;BME280;25155;41.890;23.446;2023-04-27T12:05:18;91513.31;;;8.41;43.04
39455;BME280;25155;41.890;23.446;2023-04-27T12:07:45;91519.50;;;8.50;41.85
39455;BME280;25155;41.890;23.446;2023-04-27T12:10:14;91522.00;;;8.60;41.34
39455;BME280;25155;41.890;23.446;2023-04-27T12:12:41;91517.34;;;8.57;42.81
39455;BME280;25155;41.890;23.446;2023-04-27T12:15:09;91514.50;;;8.54;42.99
39455;BME280;25155;41.890;23.446;2023-04-27T12:17:37;91516.59;;;8.52;41.53
39455;BME280;25155;41.890;23.446;2023-04-27T12:20:05;91514.59;;;8.43;40.27
39455;BME280;25155;41.890;23.446;2023-04-27T12:22:32;91522.19;;;8.40;42.33
39455;BME280;25155;41.890;23.446;2023-04-27T12:25:01;91515.38;;;8.44;41.87
39455;BME280;25155;41.890;23.446;2023-04-27T12:27:29;91515.50;;;8.34;42.55
39455;BME280;25155;41.890;23.446;2023-04-27T12:29:56;91522.59;;;8.28;41.01
39455;BME280;25155;41.890;23.446;2023-04-27T12:32:25;91522.09;;;8.26;41.92
39455;BME280;25155;41.890;23.446;2023-04-27T12:34:52;91513.38;;;8.36;41.55
39455;BME280;25155;41.890;23.446;2023-04-27T12:37:19;91516.50;;;8.38;42.58
39455;BME280;25155;41.890;23.446;2023-04-27T12:39:47;91526.38;;;8.41;41.47
39455;BME280;25155;41.890;23.446;2023-04-27T12:42:14;91523.28;;;8.39;41.86
39455;BME280;25155;41.890;23.446;2023-04-27T12:44:45;91523.03;;;8.35;42.07
39455;BME280;25155;41.890;23.446;2023-04-27T12:47:12;91527.38;;;8.45;41.36
39455;BME280;25155;41.890;23.446;2023-04-27T12:49:39;91525.16;;;8.57;41.38
39455;BME280;25155;41.890;23.446;2023-04-27T12:52:06;91527.72;;;8.62;42.26
39455;BME280;25155;41.890;23.446;2023-04-27T12:54:35;91526.44;;;8.60;42.36
39455;BME280;25155;41.890;23.446;2023-04-27T12:57:02;91534.72;;;8.67;40.84
39455;BME280;25155;41.890;23.446;2023-04-27T12:59:31;91528.66;;;8.72;42.01
39455;BME280;25155;41.890;23.446;2023-04-27T13:02:00;91524.50;;;8.71;42.89
39455;BME280;25155;41.890;23.446;2023-04-27T13:04:28;91540.66;;;8.73;41.81
39455;BME280;25155;41.890;23.446;2023-04-27T13:06:55;91540.59;;;8.78;41.57
39455;BME280;25155;41.890;23.446;2023-04-27T13:09:24;91546.28;;;8.85;39.80